Date,TemperatureHighF,TemperatureAvgF,TemperatureLowF,DewpointHighF,DewpointAvgF,DewpointLowF,HumidityHigh,HumidityAvg,HumidityLow,PressureMaxIn,PressureMinIn,WindSpeedMaxMPH,WindSpeedAvgMPH,GustSpeedMaxMPH,PrecipitationSumIn
2012-1-8,34.9,31.1,27.9,23.6,21.6,20.1,76,68,56,29.96,29.92,0,0,0,0.00
2012-1-9,53.1,32.9,22.0,33.6,23.4,16.9,90,70,42,29.97,29.84,0,0,0,0.00
2012-1-10,27.0,19.1,14.6,19.2,14.6,9.3,87,83,72,30.15,29.94,23,14,23,0.00
2012-1-11,31.0,11.9,4.5,10.2,0.6,-5.9,78,61,39,30.19,30.08,19,4,21,0.00
2012-1-12,32.0,16.5,6.1,14.9,5.3,-2.2,75,62,41,30.08,29.91,8,2,8,0.08
2012-1-13,44.3,27.9,19.3,21.2,11.9,6.4,69,52,32,29.93,29.86,9,3,10,0.00
2012-1-14,50.0,32.4,19.4,21.4,13.9,8.6,68,48,22,29.87,29.44,26,6,26,0.00
2012-1-15,41.8,22.7,8.6,24.7,10.1,3.6,88,60,32,29.67,29.42,27,11,27,0.00
2012-1-16,18.0,8.4,2.7,6.5,1.4,-3.8,86,73,56,29.77,29.64,18,6,18,0.00
2012-1-17,27.5,18.2,3.6,11.4,4.8,-2.5,88,57,40,29.77,29.43,36,12,37,0.00
2012-1-18,27.7,5.4,-8.5,15.7,-0.3,-13.6,85,77,49,29.56,29.43,25,8,27,0.00
2012-1-19,13.1,3.1,-8.8,4.8,-2.0,-13.8,84,79,65,29.53,29.35,18,4,18,0.00
2012-1-20,31.3,15.4,0.5,23.8,8.8,-3.9,85,76,53,29.67,29.33,19,4,20,0.00
2012-1-21,43.6,37.6,28.6,34.3,27.7,16.1,80,68,47,29.46,29.13,35,11,35,0.02
2012-1-22,42.5,29.5,21.1,20.8,13.2,6.9,71,51,34,29.71,29.46,27,5,27,0.00
2012-1-23,36.5,27.6,21.1,25.8,16.8,8.2,77,64,47,29.81,29.57,11,4,13,0.00
2012-1-24,32.6,22.8,6.8,17.1,9.9,-0.2,82,59,39,29.94,29.70,18,6,19,0.00
2012-1-25,46.3,36.6,27.0,33.5,23.8,11.6,83,60,43,29.91,29.64,42,14,43,0.02
2012-1-26,45.9,34.7,26.3,31.8,20.4,10.9,70,56,32,29.88,29.53,42,10,42,0.00
2012-1-27,38.7,27.7,22.9,16.2,7.8,1.2,69,43,30,30.09,29.87,34,12,42,0.00
2012-1-28,34.9,28.0,20.0,19.4,10.1,3.2,60,47,35,30.05,29.92,11,3,12,0.00
2012-1-29,53.6,41.7,31.1,29.1,24.1,16.6,69,51,34,29.93,29.59,34,7,34,0.00
2012-1-30,45.4,40.1,34.4,29.4,23.7,19.0,62,52,45,29.74,29.50,26,6,27,0.00
2012-1-31,46.3,35.7,27.2,26.6,21.0,16.6,68,55,40,29.88,29.74,20,4,21,0.00
2012-2-1,44.3,32.7,22.9,26.8,20.2,13.7,75,61,41,29.89,29.74,16,3,16,0.00
2012-2-2,36.4,31.5,25.2,27.6,22.7,15.7,89,70,60,30.13,29.89,21,8,21,0.00
2012-2-3,40.7,26.4,17.3,25.8,17.4,11.5,82,69,51,30.19,30.12,10,3,10,0.00
2012-2-4,43.4,25.2,12.6,23.9,14.8,6.7,86,66,44,30.18,30.08,10,4,11,0.00
2012-2-5,39.2,26.1,13.3,24.4,15.0,7.1,79,64,44,30.09,29.98,16,4,18,0.00
2012-2-6,32.4,28.1,23.9,25.8,22.9,19.4,87,81,73,30.13,30.03,20,8,20,0.00
2012-2-7,35.8,23.6,15.5,24.8,17.0,9.3,87,76,53,30.12,29.95,10,5,11,0.00
2012-2-8,38.0,22.1,8.6,24.4,14.1,3.8,85,72,55,29.99,29.94,10,3,11,0.00
2012-2-9,49.3,34.4,26.6,33.1,26.1,19.3,88,72,48,30.05,29.97,11,3,11,0.00
2012-2-10,27.4,22.5,17.3,21.6,18.0,14.0,89,83,73,30.03,29.95,18,8,18,0.00
2012-2-11,38.0,20.5,8.5,23.4,13.5,3.1,88,75,53,30.03,29.81,9,4,9,0.00
2012-2-12,36.9,22.0,8.8,24.4,15.0,3.8,84,75,57,29.81,29.61,4,1,5,0.01
2012-2-13,44.1,29.5,13.7,30.3,22.0,9.4,87,74,55,29.64,29.58,9,2,9,0.00
2012-2-14,40.9,27.1,17.3,26.4,18.5,7.1,88,71,43,29.68,29.56,24,5,24,0.00
2012-2-15,37.3,23.9,12.1,23.3,14.0,5.5,80,66,50,29.96,29.67,14,4,14,0.00
2012-2-16,46.3,26.7,14.4,24.9,16.1,7.4,79,65,38,29.99,29.86,10,4,10,0.00
2012-2-17,43.2,31.7,22.3,30.0,23.9,15.3,89,73,55,29.96,29.79,13,5,13,0.00
2012-2-18,37.6,28.9,20.2,25.4,19.1,14.1,89,67,46,29.80,29.65,22,6,22,0.00
2012-2-19,39.4,26.8,16.0,24.1,15.6,9.7,81,63,50,29.70,29.61,17,4,17,0.00
2012-2-20,34.7,26.8,20.5,22.2,16.5,9.4,79,65,53,29.69,29.64,10,3,10,0.00
2012-2-21,40.9,32.9,27.4,33.9,26.1,20.9,88,76,65,29.67,29.51,21,4,21,0.04
2012-2-22,45.2,38.6,26.5,36.5,30.3,18.5,92,73,53,29.61,29.28,44,14,44,0.03
2012-2-23,35.8,29.4,26.3,20.0,16.2,12.3,72,58,41,29.87,29.61,31,15,31,0.00
2012-2-24,44.5,33.4,25.4,25.0,19.5,14.6,72,57,37,29.94,29.55,23,6,24,0.00
2012-2-25,35.6,32.5,27.0,28.5,20.2,11.9,86,60,50,29.65,29.25,33,15,33,0.00
2012-2-26,34.2,27.3,20.2,25.2,17.7,13.6,84,67,54,29.82,29.65,19,4,19,0.00
2012-2-27,41.2,25.8,16.4,23.9,15.0,8.6,83,64,45,29.81,29.67,13,5,14,0.00
2012-2-28,40.3,25.4,15.8,21.4,13.3,6.6,74,60,45,29.67,29.58,10,4,10,0.00
2012-2-29,46.1,29.0,18.4,26.6,16.4,7.1,88,60,36,29.58,29.33,28,9,29,0.00
2012-3-1,37.1,25.2,16.6,21.2,12.1,6.4,71,58,40,29.74,29.51,25,5,27,0.00
2012-3-2,35.1,28.8,24.3,17.6,12.9,9.6,60,51,41,29.87,29.74,33,13,33,0.00
2012-3-3,45.5,36.0,28.6,29.4,24.3,16.6,85,63,49,29.88,29.79,29,9,29,0.00
2012-3-4,59.4,46.0,37.8,32.9,26.1,19.7,59,46,28,29.94,29.74,32,8,33,0.00
2012-3-5,44.3,39.2,36.2,27.0,22.7,20.3,60,52,44,29.74,29.64,18,6,18,0.00
2012-3-6,27.0,22.0,18.0,17.8,13.3,9.6,73,69,65,29.77,29.68,13,6,13,0.00
2012-3-7,37.8,24.1,13.3,19.5,12.2,6.1,78,62,39,30.09,29.76,19,5,22,0.00
2012-3-8,52.6,33.7,18.9,27.9,19.4,11.3,77,57,33,30.21,30.09,11,4,13,0.00
2012-3-9,67.9,45.0,29.5,31.0,21.4,9.5,70,45,12,30.12,29.81,22,4,22,0.00
2012-3-10,66.6,45.1,28.4,26.7,22.1,17.6,67,43,17,29.81,29.54,22,6,24,0.00
2012-3-11,66.6,44.7,31.9,31.4,25.0,20.2,72,49,21,29.59,29.31,40,10,40,0.00
2012-3-12,49.3,32.9,26.1,26.6,22.1,19.1,80,66,36,29.67,29.49,25,9,27,0.00
2012-3-13,59.6,51.9,35.1,28.4,25.0,22.7,73,37,25,29.42,29.24,46,18,46,0.00
2012-3-14,47.9,35.0,28.4,32.5,26.8,16.0,93,73,44,29.74,29.62,10,3,12,0.00
2012-3-15,66.4,45.8,30.2,38.4,33.5,28.1,94,66,34,29.76,29.56,24,9,24,0.00
2012-3-16,48.6,42.0,35.1,42.9,35.3,30.7,89,77,63,29.56,29.43,26,8,26,0.07
2012-3-17,58.7,41.9,35.1,46.5,36.5,31.1,92,82,55,29.50,29.19,34,8,34,0.18
2012-3-18,39.4,34.0,29.9,33.9,30.1,26.5,93,86,76,29.35,29.17,25,12,30,0.05
2012-3-19,35.6,30.0,22.5,26.9,22.1,11.5,91,74,47,29.60,29.28,31,15,31,0.01
2012-3-20,45.9,32.3,20.5,28.4,20.0,10.5,73,61,49,29.64,29.54,27,11,27,0.00
2012-3-21,63.5,44.0,28.4,37.5,30.6,24.3,88,62,36,29.72,29.60,25,8,27,0.00
2012-3-22,64.4,46.1,41.0,34.8,31.5,28.9,67,57,31,29.70,29.61,23,11,24,0.00
2012-3-23,42.8,36.7,30.8,31.9,29.1,26.0,91,74,58,29.91,29.65,35,14,35,0.01
2012-3-24,42.3,33.6,28.6,35.9,30.4,26.3,93,88,77,29.93,29.81,19,5,19,0.01
2012-3-25,56.9,37.7,29.0,42.5,32.6,27.4,95,83,50,29.83,29.53,16,3,16,0.00
2012-3-26,61.2,40.4,27.5,43.2,33.5,25.3,93,78,44,29.64,29.34,30,7,30,0.03
2012-3-27,63.9,47.1,33.8,30.3,26.5,20.4,77,48,24,29.76,29.64,21,7,21,0.00
2012-3-28,62.1,44.1,34.7,37.4,31.5,27.0,85,63,33,29.73,29.54,28,8,28,0.02
2012-3-29,62.6,44.4,29.9,30.7,26.8,22.0,84,54,25,29.74,29.53,30,7,30,0.00
2012-3-30,66.2,53.9,41.8,36.5,31.8,29.0,68,45,28,29.57,29.41,33,6,35,0.00
2012-3-31,48.2,43.7,42.1,39.6,35.3,33.1,78,72,67,29.55,29.48,13,4,13,0.00
2012-4-1,50.9,41.3,34.2,38.8,26.3,15.9,79,55,45,29.82,29.48,32,13,32,0.01
2012-4-2,54.7,39.9,29.7,27.0,19.0,13.7,56,44,28,30.03,29.82,23,6,24,0.00
2012-4-3,62.6,42.7,24.7,26.6,21.3,15.7,76,47,21,29.97,29.65,28,8,28,0.00
2012-4-4,72.4,48.7,34.7,33.6,26.2,17.8,63,44,17,29.69,29.41,34,11,34,0.00
2012-4-5,52.9,39.7,31.3,29.5,22.7,16.5,85,53,31,29.75,29.67,24,6,25,0.00
2012-4-6,35.5,31.8,28.6,29.4,27.2,22.6,91,83,71,29.94,29.63,18,10,18,0.07
2012-4-7,44.8,34.8,25.6,31.6,22.9,17.8,86,64,37,30.07,29.94,14,4,16,0.01
2012-4-8,59.0,41.9,27.7,32.4,25.4,18.9,74,54,29,30.11,30.00,14,4,14,0.00
2012-4-9,65.5,44.9,32.0,33.9,25.7,18.1,62,48,28,30.04,29.89,13,5,13,0.00
2012-4-10,73.3,51.0,32.4,38.9,30.6,24.0,76,49,24,29.92,29.71,12,3,12,0.00
2012-4-11,79.7,57.6,38.9,39.0,31.8,21.3,64,41,13,29.73,29.38,18,5,18,0.00
2012-4-12,55.4,48.3,37.1,40.7,33.2,25.3,84,58,37,29.58,29.38,24,9,25,0.27
2012-4-13,59.6,44.8,31.5,34.1,28.1,23.7,75,54,32,29.64,29.53,20,5,20,0.00
2012-4-14,42.5,37.9,34.2,26.0,23.9,22.8,66,57,48,29.59,29.57,13,6,13,0.00
2012-4-21,68.8,55.0,46.4,41.5,38.2,35.3,76,55,34,29.98,29.92,19,7,19,0.00
2012-4-22,82.4,59.5,37.8,44.3,34.0,26.9,77,44,15,30.00,29.85,18,6,20,0.00
2012-4-23,87.5,64.5,43.6,47.5,39.0,31.5,68,42,21,29.90,29.73,32,6,34,0.00
2012-4-24,78.1,64.3,53.6,44.9,39.5,32.7,62,42,23,29.74,29.64,25,9,31,0.00
2012-4-25,76.1,60.9,48.6,44.1,39.2,33.9,63,47,23,29.79,29.66,24,7,24,0.00
2012-4-26,80.3,61.4,49.1,46.9,42.8,37.4,83,54,24,29.65,29.33,28,11,30,0.00
2012-4-27,50.0,39.0,36.4,42.4,27.8,21.4,79,64,49,29.83,29.47,38,18,46,0.02
2012-4-28,45.2,40.7,37.4,34.8,28.4,24.1,84,62,48,29.89,29.82,27,12,27,0.01
2012-4-29,57.2,46.2,36.7,36.5,30.7,25.9,84,57,33,29.84,29.74,18,6,18,0.00
2012-4-30,70.2,47.9,37.3,43.9,34.0,24.0,75,60,26,29.74,29.43,27,7,28,0.01
2012-5-1,54.7,45.1,38.3,34.4,26.9,16.9,71,51,24,29.61,29.53,28,9,28,0.00
2012-5-2,54.9,41.3,31.3,32.6,23.6,18.1,62,50,36,29.76,29.57,31,8,31,0.00
2012-5-3,61.6,44.0,28.8,41.4,29.5,17.7,79,58,40,29.75,29.58,22,6,22,0.02
2012-5-4,62.3,48.1,36.4,40.5,35.4,31.1,88,64,32,29.83,29.66,24,6,24,0.06
2012-5-5,51.5,43.3,37.8,32.2,24.5,16.7,70,49,27,30.03,29.80,32,17,33,0.00
2012-5-6,55.3,45.2,37.4,27.9,23.3,20.0,52,43,28,30.14,30.03,29,10,29,0.00
2012-5-7,76.0,50.4,28.3,33.8,26.2,17.3,72,42,21,30.15,29.99,14,5,14,0.00
2012-5-8,85.1,59.5,37.1,35.7,28.1,22.3,60,35,15,30.00,29.79,13,5,13,0.00
2012-5-9,83.5,62.7,44.6,36.7,30.0,22.5,54,32,12,29.81,29.59,29,8,32,0.00
2012-5-10,54.0,46.6,35.6,37.4,16.5,-2.0,72,34,12,29.96,29.67,34,14,34,0.04
2012-5-11,72.2,48.1,29.2,22.1,15.0,7.2,53,29,13,30.05,29.95,16,6,17,0.00
2012-5-12,80.5,56.1,34.9,27.5,19.5,12.3,56,27,10,30.10,30.00,16,5,16,0.00
2012-5-13,88.2,61.8,38.5,33.3,25.3,16.6,50,28,11,30.10,29.95,16,5,16,0.00
2012-5-14,86.4,65.8,44.6,32.0,24.7,17.0,41,24,8,30.05,29.92,18,5,18,0.00
2012-5-15,89.6,69.6,46.8,37.1,31.5,24.4,49,27,12,29.97,29.75,16,7,16,0.00
2012-5-16,89.6,70.5,53.3,40.4,34.2,27.9,42,28,15,29.78,29.63,23,6,24,0.00
2012-5-17,65.2,59.3,52.7,32.8,29.1,25.1,42,32,24,29.71,29.69,16,7,17,0.00
2012-5-18,62.5,55.2,44.3,35.0,26.1,10.5,58,35,15,29.84,29.66,26,11,26,0.00
2012-5-19,70.2,52.0,34.0,33.9,26.9,20.9,68,41,22,29.91,29.83,16,5,17,0.00
2012-5-20,77.6,58.5,38.5,41.2,33.1,23.4,71,41,22,29.96,29.84,19,7,20,0.00
2012-5-21,82.4,64.3,52.9,51.8,42.1,34.3,79,46,22,29.91,29.62,33,9,33,0.02
2012-5-22,61.0,52.8,45.0,51.8,39.9,29.6,85,63,32,29.67,29.58,32,9,32,0.15
2012-5-23,56.2,48.6,42.5,34.5,30.1,25.9,71,50,32,29.62,29.56,29,13,29,0.00
2012-5-24,55.8,47.1,40.3,35.6,31.2,25.7,70,55,36,29.73,29.59,27,7,32,0.00
2012-5-25,47.5,40.6,36.7,35.3,31.5,27.4,87,71,47,29.77,29.71,22,6,22,0.12
2012-5-26,42.3,38.6,33.1,35.6,32.8,30.6,92,80,70,29.76,29.65,17,7,17,0.24
2012-5-27,42.7,35.6,32.2,35.9,32.5,30.3,93,89,70,29.79,29.62,21,11,21,0.25
2012-5-28,65.5,44.1,33.3,47.4,37.4,31.1,93,79,46,29.88,29.78,10,3,13,0.14
2012-5-29,66.6,52.2,39.2,48.6,40.6,33.5,86,66,40,29.88,29.77,31,5,31,0.02
2012-5-30,59.9,53.2,46.1,37.8,32.0,22.0,63,45,30,29.97,29.84,25,8,25,0.00
2012-5-31,72.0,55.3,41.8,48.4,41.3,33.1,80,60,37,29.98,29.84,20,5,20,0.00
2012-6-1,72.7,62.4,52.7,52.4,48.5,44.7,82,62,46,29.89,29.75,16,5,16,0.02
2012-6-2,79.7,58.7,48.6,55.5,47.5,41.6,89,68,38,29.75,29.53,27,6,29,0.14
2012-6-3,81.9,61.2,44.3,49.4,42.7,35.8,75,53,29,29.82,29.72,16,5,17,0.00
2012-6-4,94.9,68.7,53.5,56.7,48.4,42.8,70,51,25,29.80,29.50,24,8,24,0.00
2012-6-5,77.6,61.8,46.4,56.5,50.6,41.3,87,69,38,29.60,29.38,44,11,44,0.19
2012-6-6,62.8,52.5,44.1,44.2,34.3,26.9,87,53,30,29.88,29.57,23,7,23,0.21
2012-6-7,73.6,58.4,39.6,41.8,32.9,26.6,74,43,19,29.93,29.69,26,9,26,0.00
2012-6-8,66.6,56.4,42.3,45.5,37.2,28.4,87,51,32,29.69,29.55,27,7,30,0.09
2012-6-9,58.7,48.6,38.2,39.2,32.5,23.6,87,57,29,29.69,29.58,26,8,26,0.00
2012-6-10,47.0,43.8,41.2,41.0,35.5,28.3,85,73,49,29.79,29.66,17,5,18,0.27
2012-6-11,77.9,57.1,42.7,49.7,42.5,36.5,82,61,34,30.03,29.94,11,4,14,0.00
2012-6-12,76.3,60.6,45.2,52.1,44.2,36.1,81,57,30,29.95,29.75,19,4,24,0.04
2012-6-13,65.3,56.4,49.0,50.6,43.8,32.5,88,65,33,29.78,29.68,24,10,30,0.24
2012-6-14,83.3,61.1,46.3,45.2,37.9,32.1,65,44,22,29.85,29.74,16,6,20,0.00
2012-6-15,71.1,61.0,52.9,37.6,32.2,25.7,47,35,19,29.97,29.75,26,11,28,0.00
2012-6-16,78.8,62.2,47.2,43.8,35.0,24.8,63,39,15,29.98,29.73,22,6,22,0.00
2012-6-17,76.3,66.6,59.8,52.9,40.1,30.4,59,39,22,29.73,29.50,33,11,33,0.00
2012-6-18,68.0,57.8,47.0,38.1,33.4,28.1,59,41,28,29.68,29.47,35,11,35,0.00
2012-6-19,62.8,53.5,43.0,37.3,34.2,29.3,67,49,34,29.86,29.65,26,11,26,0.00
2012-6-20,87.1,58.8,44.8,43.5,37.1,31.3,68,46,19,30.00,29.85,22,6,22,0.00
2012-6-21,88.9,67.1,43.2,43.3,35.7,27.2,70,36,13,29.93,29.77,14,6,14,0.00
2012-6-22,87.1,66.2,56.5,55.1,46.9,38.4,68,52,24,29.78,29.57,21,9,22,0.02
2012-6-23,91.6,72.8,56.2,58.0,53.0,43.9,79,53,25,29.66,29.56,20,8,20,0.00
2012-6-24,102.2,76.8,57.6,59.4,48.3,28.8,83,49,6,29.77,29.66,31,12,31,0.00
2012-6-25,101.3,79.7,61.7,61.1,50.2,28.1,85,47,2,29.77,29.56,32,11,32,0.00
2012-6-26,89.5,70.2,50.4,60.2,44.3,22.3,80,47,8,29.76,29.44,40,14,40,0.01
2012-6-27,84.8,61.8,43.6,34.7,28.9,15.9,59,33,11,29.88,29.74,28,7,28,0.00
2012-6-28,89.5,68.9,48.6,37.8,32.1,25.4,53,29,10,29.91,29.76,21,6,23,0.00
2012-6-29,87.5,71.6,56.0,45.5,38.7,32.3,50,32,16,29.88,29.78,31,8,33,0.00
2012-6-30,92.2,75.3,56.7,48.9,43.9,36.5,61,37,16,29.90,29.71,15,5,15,0.00
2012-7-1,85.3,70.4,58.0,54.5,49.6,43.3,83,53,25,29.84,29.69,36,11,36,0.27
2012-7-2,88.6,69.6,52.2,57.4,51.3,46.2,89,57,26,29.88,29.66,13,5,13,0.00
2012-7-3,80.1,70.6,57.2,54.0,47.2,35.0,73,45,29,29.80,29.55,29,13,29,0.00
2012-7-4,83.5,65.1,48.8,42.5,35.3,28.2,59,36,17,29.86,29.74,20,6,20,0.00
2012-7-5,78.8,66.4,57.6,47.6,35.6,24.2,56,33,22,29.88,29.79,26,10,26,0.00
2012-7-6,91.8,68.1,52.0,56.1,46.1,35.7,76,49,16,30.03,29.88,42,6,42,0.03
2012-7-7,96.8,71.4,59.6,55.9,46.1,33.5,78,44,15,30.08,29.99,34,9,34,0.04
2012-7-8,94.0,75.7,54.4,56.6,45.7,30.2,73,40,11,30.08,29.98,16,5,16,0.00
2012-7-9,101.5,80.7,58.9,52.1,41.5,28.8,56,30,8,30.05,29.92,32,6,32,0.00
2012-7-10,91.8,75.7,63.4,52.2,44.1,32.3,61,35,13,29.98,29.85,41,7,41,0.04
2012-7-11,96.7,71.7,56.9,54.9,47.3,36.6,82,46,16,29.95,29.86,42,6,42,0.01
2012-7-12,95.0,67.1,52.9,53.5,44.9,38.7,70,49,15,29.94,29.87,17,5,17,0.00
2012-7-13,80.6,70.3,64.6,57.5,55.8,50.8,77,62,37,29.97,29.86,25,10,25,0.26
2012-7-14,85.3,69.2,61.6,63.5,58.0,54.6,88,69,40,29.92,29.74,17,5,19,0.29
2012-7-15,84.6,69.0,59.4,63.2,56.6,49.0,93,68,38,29.81,29.69,34,5,35,0.04
2012-7-16,85.7,66.3,55.4,58.4,53.0,48.7,91,65,32,29.84,29.76,44,5,44,0.39
2012-7-17,88.6,70.3,55.6,62.6,55.2,48.1,89,62,29,29.82,29.71,22,5,22,0.03
2012-7-18,99.4,77.3,57.4,56.3,45.8,33.1,73,40,12,29.85,29.75,24,8,24,0.00
2012-7-19,100.6,80.2,62.8,53.0,42.7,32.5,52,29,13,29.96,29.82,15,5,15,0.00
2012-7-20,95.4,76.2,66.2,61.7,50.1,38.7,66,42,19,29.99,29.85,37,8,37,0.09
2012-7-21,90.9,75.2,60.3,58.9,50.9,41.7,72,46,22,29.98,29.85,24,7,24,0.00
2012-7-22,97.2,76.3,62.8,51.1,44.6,30.6,51,35,11,29.97,29.82,34,8,34,0.00
2012-7-23,96.1,76.1,61.9,54.1,44.9,27.5,61,36,15,29.86,29.74,28,9,28,0.04
2012-7-24,90.5,71.6,52.4,38.7,31.1,23.8,41,24,11,29.87,29.74,25,8,25,0.00
2012-7-25,90.4,72.4,53.5,46.7,38.2,22.3,57,32,10,29.90,29.81,21,6,21,0.00
2012-7-26,87.1,70.7,60.1,58.2,47.1,41.1,70,44,27,29.95,29.83,41,7,41,0.13
2012-7-27,92.5,70.5,61.0,56.1,49.8,38.2,78,51,23,29.95,29.80,39,6,39,0.10
2012-7-28,90.2,68.5,53.3,58.8,51.4,37.7,85,59,26,29.95,29.84,30,6,30,0.08
2012-7-29,94.0,75.3,58.3,53.7,45.8,35.4,70,40,16,29.95,29.85,13,5,13,0.00
2012-7-30,97.6,75.7,59.8,52.1,42.3,29.0,56,33,8,29.92,29.75,35,7,38,0.00
2012-7-31,94.3,79.4,62.8,48.3,41.5,28.6,50,28,15,29.93,29.80,22,7,22,0.00
2012-8-1,95.8,77.5,66.1,40.0,33.7,27.6,33,22,11,29.95,29.84,21,8,21,0.00
2012-8-2,84.4,74.0,58.3,42.9,34.9,27.8,46,25,15,29.87,29.73,35,9,35,0.00
2012-8-3,72.9,60.0,45.5,48.7,40.4,34.2,89,52,28,29.99,29.83,26,10,27,0.02
2012-8-4,97.7,67.2,46.3,45.1,36.1,22.8,67,38,10,30.03,29.93,15,5,15,0.00
2012-8-5,101.7,73.1,50.9,39.7,32.6,28.0,43,26,10,29.97,29.87,15,5,15,0.00
2012-8-6,92.0,76.8,64.4,46.6,39.2,33.7,48,27,16,30.01,29.91,23,7,23,0.00
2012-8-7,95.8,75.3,55.8,49.1,38.6,27.4,55,31,8,30.05,29.94,21,5,21,0.00
2012-8-8,100.4,78.8,58.3,46.4,36.5,28.0,43,24,8,29.99,29.87,31,9,31,0.00
2012-8-9,93.4,77.3,63.0,52.0,45.3,40.8,53,34,18,30.02,29.88,15,6,15,0.00
2012-8-10,80.6,70.0,60.8,59.9,51.4,41.4,76,53,31,29.98,29.81,33,7,33,0.10
2012-8-11,95.2,71.2,56.7,55.7,49.5,39.1,85,53,18,29.93,29.84,15,5,15,0.00
2012-8-12,99.4,75.4,60.3,52.8,45.1,30.8,64,38,11,29.99,29.86,17,7,17,0.00
2012-8-13,94.3,72.9,57.8,49.8,39.9,23.5,62,35,7,29.91,29.79,19,5,21,0.00
2012-8-14,92.5,75.7,57.2,48.5,34.3,26.1,69,25,11,29.86,29.67,35,8,35,0.00
2012-8-15,59.8,55.2,49.9,49.0,44.6,42.2,87,68,54,30.05,29.86,28,12,28,0.00
2012-8-16,93.1,66.4,45.7,49.2,43.9,38.8,78,49,19,30.04,29.87,14,6,14,0.00
2012-8-17,90.5,71.1,52.4,47.3,35.2,22.7,57,32,10,29.97,29.89,19,5,19,0.00
2012-8-18,98.1,72.9,54.0,39.3,31.4,24.4,41,24,8,30.02,29.87,15,5,15,0.00
2012-8-19,85.7,71.9,56.2,41.4,32.3,25.1,38,24,13,29.92,29.81,18,5,18,0.00
2012-8-20,94.0,74.5,56.9,44.1,36.6,26.9,45,28,10,29.90,29.82,17,5,17,0.00
2012-8-21,93.2,72.8,57.2,53.1,41.6,32.3,71,36,16,29.87,29.72,37,8,37,0.00
2012-8-22,92.7,69.8,52.2,54.7,47.6,32.4,82,50,20,29.86,29.77,31,5,31,0.01
2012-8-23,87.5,71.8,54.9,42.0,32.6,25.7,44,26,12,29.81,29.65,16,6,16,0.00
2012-8-24,72.4,65.1,55.4,34.1,26.0,14.2,42,25,12,29.82,29.70,31,13,31,0.00
2012-8-25,88.7,74.0,55.3,34.5,27.2,21.8,39,19,11,29.87,29.77,17,6,17,0.00
2012-8-26,92.9,71.2,47.7,41.4,28.8,20.4,36,23,10,29.90,29.78,31,6,31,0.00
2012-8-27,93.4,75.1,59.2,50.6,45.4,40.8,64,37,18,29.94,29.84,26,7,28,0.00
2012-8-28,100.8,77.9,57.1,51.8,38.9,21.2,63,31,6,29.95,29.68,32,9,32,0.00
2012-8-29,83.9,69.4,60.8,40.7,33.0,21.2,37,27,10,29.88,29.69,30,12,32,0.00
2012-8-30,85.9,67.3,49.3,38.5,31.8,24.6,50,29,13,29.91,29.77,18,7,18,0.00
2012-8-31,90.9,69.9,51.8,52.9,33.8,24.7,73,29,12,29.83,29.66,31,7,31,0.02
2012-9-1,88.2,64.8,56.0,57.7,48.3,22.3,87,59,16,29.87,29.71,30,8,30,0.01
2012-9-2,79.0,62.8,45.7,40.6,26.4,8.0,55,29,11,29.94,29.80,25,6,25,0.00
2012-9-3,82.6,65.2,47.3,30.0,22.1,11.1,36,21,11,29.95,29.82,20,6,20,0.00
2012-9-4,71.5,62.8,53.6,34.8,27.4,19.0,34,27,16,29.93,29.85,24,7,24,0.00
2012-9-5,76.9,66.6,59.2,34.6,30.8,25.7,39,27,16,29.86,29.77,18,10,18,0.00
2012-9-6,65.9,56.4,50.0,43.6,39.1,33.9,69,53,38,30.03,29.86,27,12,30,0.00
2012-9-7,85.1,61.0,41.4,47.0,40.2,28.7,83,51,23,30.12,30.03,12,5,12,0.00
2012-9-8,86.0,66.9,44.3,41.1,29.7,21.3,55,29,10,30.13,29.92,22,8,24,0.00
2012-9-9,92.3,67.7,47.2,36.5,28.5,22.0,40,25,8,29.93,29.64,24,7,27,0.00
2012-9-10,79.4,65.4,54.9,37.4,31.4,19.1,42,30,11,29.79,29.65,30,9,30,0.00
2012-9-11,61.9,53.3,44.6,33.0,20.8,5.6,53,31,12,30.01,29.79,26,11,26,0.00
2012-9-12,72.4,54.7,41.6,24.8,19.2,14.6,39,26,15,30.15,30.01,20,8,20,0.00
2012-9-13,83.7,59.0,39.2,29.4,22.0,16.8,42,27,12,30.23,30.11,10,4,10,0.00
2012-9-14,85.0,61.2,40.3,30.4,21.1,13.4,45,24,8,30.12,29.93,12,4,13,0.00
2012-9-15,80.1,63.6,49.7,36.6,22.3,12.6,53,22,10,29.97,29.90,17,5,18,0.00
2012-9-16,65.7,59.4,50.0,33.3,30.8,28.1,46,34,28,30.04,29.94,28,9,28,0.00
2012-9-17,80.3,60.1,41.2,41.4,32.9,25.9,62,39,21,30.03,29.92,11,5,11,0.00
2012-9-18,86.8,64.1,42.8,35.5,28.6,22.6,55,31,12,29.97,29.84,26,6,26,0.00
2012-9-19,82.6,66.3,50.8,36.9,31.5,25.8,45,29,18,30.04,29.92,23,8,24,0.00
2012-9-20,86.4,65.1,46.8,35.6,29.6,24.0,53,28,14,30.04,29.94,10,4,10,0.00
2012-9-21,90.7,65.6,47.3,37.1,30.8,26.1,48,30,11,30.04,29.92,20,5,20,0.00
2012-9-22,86.9,66.1,51.5,38.4,32.5,26.6,47,31,13,29.98,29.87,12,5,13,0.00
2012-9-23,75.8,61.7,47.3,38.0,32.5,25.8,46,34,23,29.94,29.87,16,6,18,0.00
2012-9-24,82.6,63.6,48.8,40.4,35.1,30.4,55,36,19,29.90,29.78,13,5,13,0.00
2012-9-25,77.8,63.3,51.5,44.7,38.6,32.2,56,41,29,29.85,29.79,10,4,10,0.00
2012-9-26,71.3,58.2,50.0,46.6,41.8,33.3,75,56,37,29.93,29.85,18,8,18,0.00
2012-9-27,78.5,64.6,44.5,48.2,42.2,36.8,77,47,28,29.99,29.88,13,5,13,0.00
2012-9-28,85.5,63.5,43.9,45.4,37.8,31.4,71,43,19,29.91,29.77,19,5,19,0.00
2012-9-29,75.6,64.4,57.6,45.6,37.9,33.8,48,38,28,29.96,29.81,15,4,16,0.00
2012-9-30,73.6,61.5,50.2,43.4,36.3,31.1,62,41,25,30.09,29.95,24,7,24,0.00
2012-10-1,82.1,61.4,42.3,39.9,33.6,28.4,62,38,18,30.10,29.76,10,4,10,0.00
2012-10-2,74.9,60.0,44.5,37.9,29.8,21.9,77,34,18,29.76,29.63,24,9,24,0.00
2012-10-3,45.0,35.9,30.6,38.1,29.9,25.7,91,79,66,30.21,29.75,33,15,33,0.02
2012-10-4,44.3,34.6,28.6,29.6,26.6,24.3,87,73,52,30.18,30.05,20,8,20,0.00
2012-10-5,42.8,34.4,28.8,27.2,21.6,14.1,82,61,36,30.15,30.08,20,8,20,0.00
2012-10-6,53.3,36.3,19.8,25.5,18.0,10.5,74,50,26,30.15,30.00,11,3,14,0.00
2012-10-7,67.7,43.6,27.5,29.6,23.2,17.6,70,47,22,30.00,29.78,11,4,11,0.00
2012-10-8,53.1,44.6,36.7,38.1,31.1,21.0,81,60,42,29.89,29.73,20,6,20,0.00
2012-10-9,61.0,43.1,36.0,35.3,30.6,25.3,80,63,36,29.95,29.86,18,6,18,0.00
2012-10-10,68.0,45.2,29.7,37.7,29.5,21.4,79,58,24,29.89,29.73,25,6,25,0.00
2012-10-11,65.5,44.1,34.4,38.1,31.4,27.0,81,63,36,29.96,29.77,21,9,24,0.00
2012-10-12,76.7,48.5,28.8,38.6,28.2,19.5,89,53,18,29.77,29.60,12,3,12,0.00
2012-10-13,62.1,54.9,47.7,40.9,34.0,20.8,68,46,25,29.98,29.69,27,7,27,0.00
2012-10-14,69.1,54.5,42.3,39.6,34.1,30.6,72,49,28,30.00,29.77,18,4,18,0.00
2012-10-15,61.0,52.8,43.2,48.3,38.2,30.2,86,59,36,29.77,29.63,14,3,14,0.05
2012-10-16,57.6,47.2,40.7,45.7,32.6,18.9,90,59,28,29.67,29.33,44,18,51,0.29
2012-10-17,49.0,41.8,36.7,22.4,19.2,15.9,52,41,30,30.00,29.66,43,19,43,0.00
2012-10-18,64.8,42.3,27.5,29.2,23.3,18.4,77,50,23,30.04,29.83,13,4,13,0.00
2012-10-19,70.2,52.2,36.4,37.5,31.3,22.5,67,47,26,29.83,29.53,19,6,21,0.00
2012-10-20,57.4,46.7,31.5,41.0,31.3,20.8,77,56,31,29.67,29.45,34,11,34,0.02
2012-10-21,53.3,38.9,28.1,27.1,21.7,17.3,71,52,30,29.72,29.64,14,4,14,0.00
2012-10-22,39.4,32.8,26.3,30.5,24.3,19.3,91,72,51,29.67,29.46,28,8,28,0.00
2012-10-23,39.2,27.6,22.7,32.1,24.0,19.3,92,87,71,29.76,29.49,19,7,19,0.06
2012-10-24,36.4,27.5,22.0,30.4,23.4,18.4,90,85,73,29.92,29.76,17,4,17,0.01
2012-10-25,25.9,22.8,20.5,20.9,17.4,14.9,89,80,71,30.14,29.92,22,9,22,0.00
2012-10-26,36.9,27.3,17.1,27.6,21.6,12.7,87,79,66,30.16,29.86,10,3,10,0.00
2012-10-27,41.4,33.9,29.2,34.2,28.4,23.8,87,80,72,29.86,29.80,7,2,7,0.04
2012-10-28,57.4,46.5,34.6,43.7,37.5,31.1,88,72,57,29.76,29.68,13,4,13,0.00
2012-10-29,61.9,51.1,44.3,48.1,39.0,32.7,78,64,44,29.86,29.71,36,7,36,0.02
2012-10-30,67.3,52.1,40.9,40.3,34.3,30.9,73,53,29,29.90,29.77,20,5,20,0.00
2012-10-31,65.2,52.7,44.3,39.4,35.3,30.7,72,53,33,29.84,29.67,14,4,14,0.00
2012-11-1,56.9,49.9,40.9,37.0,34.0,30.8,77,55,44,29.79,29.62,25,6,25,0.01
2012-11-2,55.8,43.8,37.4,41.1,33.3,27.3,86,68,44,29.93,29.79,14,5,15,0.04
2012-11-3,57.6,41.0,29.9,38.6,30.7,24.1,85,68,45,29.95,29.87,11,3,11,0.00
2012-11-4,57.6,50.0,43.0,39.2,36.9,33.3,71,61,47,30.10,29.90,22,6,22,0.00
2012-11-5,65.5,53.0,44.3,43.3,38.0,34.4,77,59,36,30.09,29.92,26,6,26,0.00
2012-11-6,64.4,48.7,42.1,41.6,35.6,32.2,77,61,41,30.03,29.73,14,4,14,0.00
2012-11-7,67.5,50.9,39.2,42.0,32.4,24.6,66,50,26,29.74,29.57,31,13,31,0.00
2012-11-8,29.5,26.4,24.8,25.0,22.9,21.0,91,87,76,29.76,29.53,22,12,22,0.00
2012-11-9,25.7,16.5,10.4,22.8,12.5,4.4,91,84,76,29.66,29.51,30,18,30,0.00
2012-11-10,15.5,6.5,-0.4,7.8,0.4,-5.9,82,76,68,29.78,29.64,27,11,27,0.00
2012-11-11,32.8,11.6,0.7,20.9,4.6,-3.8,85,74,50,29.99,29.76,11,3,11,0.00
2012-11-12,34.2,21.9,8.5,24.2,14.3,2.3,83,73,54,30.00,29.91,13,3,13,0.00
2012-11-13,39.6,32.9,27.0,30.8,26.4,21.9,85,77,65,29.98,29.88,12,4,12,0.02
2012-11-14,47.9,34.8,28.4,34.6,26.0,22.1,85,71,52,30.00,29.84,21,4,21,0.00
2012-11-15,47.5,30.9,21.6,31.8,22.5,15.6,84,72,50,30.02,29.79,9,2,9,0.00
2012-11-16,45.5,32.4,22.1,33.0,25.1,16.3,88,75,55,29.80,29.73,15,3,15,0.00
2012-11-17,47.2,35.8,23.8,35.2,29.0,20.7,91,77,58,29.78,29.53,25,7,25,0.00
2012-11-18,42.5,36.9,27.4,33.7,28.2,19.3,86,71,47,29.76,29.46,22,7,22,0.01
2012-11-19,50.6,38.8,27.0,32.6,27.6,19.8,81,65,48,29.77,29.66,27,13,27,0.00
2012-11-20,53.8,47.2,42.8,37.5,34.9,31.3,71,63,51,29.69,29.43,25,12,25,0.00
2012-11-21,44.3,35.8,28.4,35.0,25.5,18.3,74,66,46,29.80,29.33,27,9,27,0.12
2012-11-22,39.2,32.0,22.9,23.0,17.0,14.0,74,55,38,30.21,29.79,35,10,35,0.00
2012-11-23,45.4,31.6,21.1,27.6,20.9,13.3,77,65,45,30.18,29.85,9,2,9,0.00
2012-11-24,45.2,38.2,30.1,33.9,27.7,22.5,79,66,54,29.85,29.79,14,4,14,0.00
2012-11-25,36.2,33.1,26.3,28.4,20.3,13.0,81,60,44,30.00,29.75,22,8,22,0.00
2012-11-26,35.1,25.3,16.4,20.9,15.0,9.9,79,65,51,30.04,29.90,15,4,15,0.00
2012-11-27,39.6,28.7,21.2,24.0,18.4,12.6,76,66,49,29.97,29.89,8,2,8,0.00
2012-11-28,49.9,36.2,29.2,32.0,24.9,21.1,75,64,48,29.89,29.67,14,3,14,0.00
2012-11-29,57.6,42.5,33.8,38.3,29.6,24.0,85,62,37,29.75,29.64,23,5,25,0.00
2012-11-30,48.2,42.9,37.1,39.1,33.1,28.7,87,69,57,29.65,29.45,24,9,24,0.01
2012-12-1,54.5,41.4,35.1,35.5,32.4,28.4,84,71,41,29.61,29.51,32,10,32,0.01
2012-12-2,55.6,43.1,31.7,39.3,30.8,18.4,87,63,45,29.62,29.11,50,17,50,0.18
2012-12-3,49.0,38.2,32.2,25.4,21.4,18.6,62,51,35,29.93,29.61,28,7,28,0.00
2012-12-4,48.4,39.8,30.6,33.8,27.2,19.8,70,61,47,29.92,29.71,25,13,25,0.00
2012-12-5,53.8,41.0,28.4,39.1,28.5,17.5,87,61,43,29.86,29.58,31,11,31,0.03
2012-12-6,34.7,29.9,25.2,25.0,21.4,18.5,83,70,58,29.85,29.71,10,3,11,0.00
2012-12-7,40.3,31.1,23.8,25.7,20.1,15.4,89,66,42,29.73,29.45,37,7,37,0.00
2012-12-8,29.9,18.5,7.9,23.0,11.6,3.1,88,75,47,29.94,29.44,46,16,46,0.00
2012-12-9,29.2,15.1,2.5,18.0,8.6,-2.9,86,76,56,30.05,29.79,11,4,11,0.00
2012-12-10,33.1,29.5,20.2,22.3,18.7,13.9,81,64,52,29.80,29.69,31,14,31,0.00
2012-12-11,44.8,34.5,27.7,28.7,23.2,20.0,78,64,41,29.72,29.38,17,4,19,0.00
2012-12-12,37.1,31.5,25.0,32.9,27.0,22.6,92,83,70,29.64,29.38,13,3,13,0.04
2012-12-13,38.9,24.8,15.1,28.6,18.6,10.1,88,77,60,29.71,29.60,12,4,12,0.02
2012-12-14,33.8,20.7,11.2,25.8,16.1,7.5,89,82,69,29.61,29.47,11,3,11,0.00
2012-12-15,34.4,21.7,13.7,27.0,17.3,7.7,91,83,69,29.64,29.44,8,2,8,0.00
2012-12-16,33.3,24.3,13.5,22.7,13.7,6.5,87,65,36,29.52,29.37,25,6,25,0.00
2012-12-17,37.8,30.2,23.9,30.9,19.5,8.8,88,65,43,29.43,29.21,39,12,39,0.02
2012-12-18,31.1,23.9,15.8,14.4,6.7,3.3,60,48,37,29.67,29.43,28,7,28,0.00
2012-12-19,28.4,15.7,5.9,13.5,4.8,-1.3,80,62,48,29.84,29.66,12,3,14,0.00
2012-12-20,33.5,23.4,11.9,17.6,11.4,2.3,71,60,49,29.85,29.76,31,15,31,0.00
2012-12-21,39.6,30.4,22.7,18.4,14.3,9.8,63,51,37,29.78,29.70,30,12,31,0.00
2012-12-22,30.6,23.1,14.2,18.9,13.6,9.5,81,67,50,29.74,29.56,20,6,20,0.00
2012-12-23,41.9,25.0,13.9,24.6,15.7,9.0,83,69,47,29.76,29.56,27,4,27,0.00
2012-12-24,20.9,5.1,1.8,14.9,-0.4,-5.3,84,77,71,29.97,29.56,33,18,33,0.00
2012-12-25,23.8,9.1,2.2,11.0,2.0,-4.5,82,73,53,29.97,29.66,10,2,10,0.00
2012-12-26,29.2,17.5,9.7,19.7,11.9,4.1,84,79,66,29.66,29.52,5,1,6,0.00
2012-12-27,30.8,21.1,12.4,22.8,15.5,7.7,84,79,68,29.73,29.59,9,2,9,0.00
2012-12-28,35.8,24.6,15.7,19.9,13.9,7.2,84,64,45,29.89,29.72,19,6,19,0.00
2012-12-29,28.3,17.1,6.8,16.4,9.1,1.1,82,71,58,29.90,29.76,8,2,10,0.00
2012-12-30,34.6,18.0,10.8,22.9,11.2,5.0,81,75,59,29.89,29.78,9,2,10,0.00
2012-12-31,22.1,15.4,5.2,15.2,9.5,0.9,88,77,65,29.96,29.84,7,1,7,0.00
2013-1-1,29.2,17.2,9.2,18.9,10.0,3.4,82,73,57,30.10,29.94,12,4,12,0.00